Time;durP1;ratioP1;P1;durP2;ratioP2;P2;SDS_P1;SDS_P2;PMS_P1;PMS_P2;Temp;Humidity;BMP_temperature;BMP_pressure;BME280_temperature;BME280_humidity;BME280_pressure;Samples;Min_cycle;Max_cycle;Signal;HPM_P1;HPM_P2
2022/10/06 00:01:03;;;;;;;10.43;2.50;;;;;;;;;;4347429;32;20082;-68
2022/10/06 00:03:29;;;;;;;9.73;2.62;;;;;;;;;;4345667;33;20039;-68
2022/10/06 00:05:58;;;;;;;12.05;2.20;;;;;;;;;;4347218;33;20019;-69
2022/10/06 00:08:23;;;;;;;9.93;3.55;;;;;;;;;;4346170;33;20483;-68
2022/10/06 00:10:48;;;;;;;12.85;3.17;;;;;;;;;;4360116;32;20019;-68
2022/10/06 00:13:13;;;;;;;12.30;3.17;;;;;;;;;;4359772;32;20032;-68
2022/10/06 00:15:39;;;;;;;20.27;2.72;;;;;;;;;;4361593;33;20047;-68
2022/10/06 00:18:04;;;;;;;22.67;2.53;;;;;;;;;;4358602;32;20062;-68
2022/10/06 00:20:29;;;;;;;12.57;2.90;;;;;;;;;;4361196;33;20028;-68
2022/10/06 00:22:58;;;;;;;14.95;2.53;;;;;;;;;;4360816;33;20042;-67
2022/10/06 00:25:24;;;;;;;17.12;3.22;;;;;;;;;;4346458;33;20097;-68
2022/10/06 00:27:50;;;;;;;19.20;2.45;;;;;;;;;;4346712;33;20023;-68
2022/10/06 00:30:17;;;;;;;12.77;2.80;;;;;;;;;;4360902;33;20050;-68
2022/10/06 00:32:49;;;;;;;7.05;2.20;;;;;;;;;;4359914;33;20023;-68
2022/10/06 00:35:14;;;;;;;22.73;2.28;;;;;;;;;;4346143;33;20023;-67
2022/10/06 00:38:00;;;;;;;13.30;2.60;;;;;;;;;;4345535;33;20094;-68
2022/10/06 00:40:26;;;;;;;13.40;2.05;;;;;;;;;;4327020;33;20370;-79
2022/10/06 00:42:59;;;;;;;16.12;2.90;;;;;;;;;;4331713;33;20032;-79
2022/10/06 00:45:44;;;;;;;13.15;2.80;;;;;;;;;;4345235;33;20114;-80
2022/10/06 00:48:15;;;;;;;19.12;2.45;;;;;;;;;;4345255;33;20453;-79
2022/10/06 00:50:41;;;;;;;15.77;2.70;;;;;;;;;;4332049;33;20063;-79
2022/10/06 00:53:10;;;;;;;10.05;2.65;;;;;;;;;;4331643;33;20082;-79
2022/10/06 00:55:35;;;;;;;13.35;3.70;;;;;;;;;;4331732;33;20343;-79
2022/10/06 00:58:04;;;;;;;16.50;3.08;;;;;;;;;;4345401;33;20070;-79
2022/10/06 01:00:48;;;;;;;12.98;3.03;;;;;;;;;;4331466;33;20089;-79
2022/10/06 01:03:36;;;;;;;15.35;2.70;;;;;;;;;;4346188;33;20085;-79
2022/10/06 01:12:03;;;;;;;13.62;3.10;;;;;;;;;;4342239;33;20325;-79
2022/10/06 01:14:35;;;;;;;10.63;2.50;;;;;;;;;;4345224;33;20468;-79
2022/10/06 01:17:13;;;;;;;14.30;2.60;;;;;;;;;;4345462;33;20415;-79
2022/10/06 01:23:05;;;;;;;11.30;2.67;;;;;;;;;;4338571;33;20097;-78
2022/10/06 01:25:35;;;;;;;23.65;3.37;;;;;;;;;;4295618;33;20036;-79
2022/10/06 01:28:02;;;;;;;17.05;3.08;;;;;;;;;;4347568;33;20085;-78
2022/10/06 01:33:29;;;;;;;10.75;2.42;;;;;;;;;;4301621;33;20148;-79
2022/10/06 01:36:18;;;;;;;11.68;2.72;;;;;;;;;;4343306;33;20054;-78
2022/10/06 01:38:43;;;;;;;10.88;3.03;;;;;;;;;;4348392;33;20417;-79
2022/10/06 01:41:11;;;;;;;11.27;1.92;;;;;;;;;;4333287;33;20105;-79
2022/10/06 01:43:38;;;;;;;14.25;2.80;;;;;;;;;;4348048;33;20054;-78
2022/10/06 01:46:06;;;;;;;12.82;2.47;;;;;;;;;;4348031;33;20073;-78
2022/10/06 01:48:39;;;;;;;11.30;2.40;;;;;;;;;;4333819;33;20084;-78
2022/10/06 01:51:10;;;;;;;12.32;3.03;;;;;;;;;;4347940;33;20460;-78
2022/10/06 01:53:36;;;;;;;13.70;3.05;;;;;;;;;;4348283;33;20106;-79
2022/10/06 01:56:08;;;;;;;16.75;3.03;;;;;;;;;;4347546;33;20024;-79
2022/10/06 01:58:47;;;;;;;;;;;;;;;;;;;;;
2022/10/06 02:01:13;;;;;;;11.95;2.80;;;;;;;;;;4347705;33;20057;-78
2022/10/06 02:06:30;;;;;;;15.35;3.08;;;;;;;;;;4305680;33;20090;-78
2022/10/06 02:09:12;;;;;;;14.32;2.28;;;;;;;;;;4332079;33;20039;-78
2022/10/06 02:11:44;;;;;;;12.30;2.65;;;;;;;;;;4347950;33;20381;-78
2022/10/06 02:14:16;;;;;;;16.02;2.25;;;;;;;;;;4334116;33;20090;-78
2022/10/06 02:16:51;;;;;;;18.33;4.37;;;;;;;;;;4333507;33;20024;-78
2022/10/06 02:22:15;;;;;;;;;;;;;;;;;;;;;
2022/10/06 02:24:41;;;;;;;15.63;2.70;;;;;;;;;;4347342;33;20032;-78
2022/10/06 02:27:07;;;;;;;;;;;;;;;;;;4334762;33;20050;-78
2022/10/06 02:29:48;;;;;;;13.90;2.85;;;;;;;;;;4346775;33;20331;-78
2022/10/06 02:32:31;;;;;;;12.10;2.12;;;;;;;;;;4347232;33;20032;-78
2022/10/06 02:35:00;;;;;;;13.77;2.83;;;;;;;;;;4347604;33;20031;-78
2022/10/06 02:37:25;;;;;;;13.23;2.70;;;;;;;;;;4347334;33;20099;-78
2022/10/06 02:39:54;;;;;;;13.52;2.50;;;;;;;;;;4346216;33;20336;-78
2022/10/06 02:42:19;;;;;;;17.58;2.97;;;;;;;;;;4347695;33;20049;-78
2022/10/06 02:44:57;;;;;;;17.77;3.12;;;;;;;;;;4346632;33;20357;-78
2022/10/06 02:47:42;;;;;;;21.70;2.75;;;;;;;;;;4346818;33;20031;-78
2022/10/06 02:50:08;;;;;;;12.52;2.65;;;;;;;;;;4333253;33;20090;-79
2022/10/06 03:02:20;;;;;;;12.02;2.33;;;;;;;;;;4243744;33;20069;-78
2022/10/06 03:04:57;;;;;;;15.73;3.55;;;;;;;;;;4249741;33;20034;-78
2022/10/06 03:07:28;;;;;;;13.73;2.78;;;;;;;;;;4337322;33;20049;-78
2022/10/06 03:10:33;;;;;;;11.27;2.58;;;;;;;;;;4333120;33;20023;-78
2022/10/06 03:12:59;;;;;;;13.75;2.72;;;;;;;;;;4347424;33;20050;-78
2022/10/06 03:15:27;;;;;;;16.95;2.95;;;;;;;;;;4346375;33;20028;-78
2022/10/06 03:18:13;;;;;;;18.40;2.80;;;;;;;;;;4345967;33;20050;-78
2022/10/06 03:20:38;;;;;;;16.73;3.17;;;;;;;;;;4331004;33;20027;-78
2022/10/06 03:29:08;;;;;;;14.32;2.55;;;;;;;;;;4285349;33;20020;-78
2022/10/06 03:32:01;;;;;;;;;;;;;;;;;;4331106;33;20050;-78
2022/10/06 03:34:19;;;;;;;12.93;3.33;;;;;;;;;;4344429;33;19935;-79
2022/10/06 03:36:49;;;;;;;;;;;;;;;;;;4346321;33;20054;-78
2022/10/06 03:39:14;;;;;;;16.48;3.37;;;;;;;;;;4346571;33;19957;-78
2022/10/06 03:41:40;;;;;;;;;;;;;;;;;;4346048;33;20413;-78
2022/10/06 03:44:05;;;;;;;14.32;4.05;;;;;;;;;;4346515;33;19958;-78
2022/10/06 03:46:38;;;;;;;;;;;;;;;;;;4346185;33;20032;-79
2022/10/06 03:49:14;;;;;;;16.02;2.65;;;;;;;;;;4347013;33;19980;-78
2022/10/06 03:51:40;;;;;;;16.60;3.00;;;;;;;;;;4330680;33;20020;-79
2022/10/06 04:03:29;;;;;;;15.73;3.22;;;;;;;;;;4344203;33;20031;-78
2022/10/06 04:15:58;;;;;;;13.43;3.28;;;;;;;;;;4200971;34;20019;-79
2022/10/06 04:18:41;;;;;;;20.10;3.28;;;;;;;;;;4200411;34;20083;-78
2022/10/06 04:24:53;;;;;;;14.82;2.90;;;;;;;;;;4214492;34;20099;-79
2022/10/06 04:27:28;;;;;;;18.57;3.00;;;;;;;;;;4269848;33;20036;-78
2022/10/06 04:29:57;;;;;;;14.87;2.83;;;;;;;;;;4270979;33;20131;-78
2022/10/06 04:32:34;;;;;;;17.45;3.45;;;;;;;;;;4271029;33;20026;-78
2022/10/06 04:35:00;;;;;;;18.98;3.65;;;;;;;;;;4271147;33;20418;-78
2022/10/06 04:37:26;;;;;;;;;;;;;;;;;;4345494;33;20051;-78
2022/10/06 04:40:20;;;;;;;21.80;3.00;;;;;;;;;;4331783;33;19943;-78
2022/10/06 04:42:48;;;;;;;12.88;2.97;;;;;;;;;;4346283;33;20028;-78
2022/10/06 04:45:16;;;;;;;18.60;3.10;;;;;;;;;;4346280;33;20094;-78
2022/10/06 04:47:41;;;;;;;19.05;2.55;;;;;;;;;;4345342;33;20102;-78
2022/10/06 04:50:07;;;;;;;;;;;;;;;;;;4345363;33;20054;-78
2022/10/06 04:52:32;;;;;;;20.95;3.75;;;;;;;;;;4345143;33;19938;-78
2022/10/06 04:54:58;;;;;;;;;;;;;;;;;;4345525;33;20082;-78
2022/10/06 04:57:23;;;;;;;20.50;2.97;;;;;;;;;;4346783;33;19938;-78
2022/10/06 05:05:42;;;;;;;19.62;3.55;;;;;;;;;;4348800;33;20380;-78
2022/10/06 05:08:08;;;;;;;15.20;3.67;;;;;;;;;;4347766;33;20077;-78
2022/10/06 05:10:33;;;;;;;;;;;;;;;;;;4348729;33;20397;-79
2022/10/06 05:12:58;;;;;;;13.90;2.95;;;;;;;;;;4334772;33;19939;-80
2022/10/06 05:16:06;;;;;;;;;;;;;;;;;;;;;
2022/10/06 05:18:32;;;;;;;19.27;3.08;;;;;;;;;;4273209;33;20048;-80
2022/10/06 05:21:12;;;;;;;14.18;3.65;;;;;;;;;;4333793;33;20345;-80
2022/10/06 05:23:39;;;;;;;13.95;2.67;;;;;;;;;;4347805;33;20020;-80
2022/10/06 05:26:05;;;;;;;17.37;3.47;;;;;;;;;;4334369;33;20074;-79
2022/10/06 05:28:33;;;;;;;43.72;5.22;;;;;;;;;;4348243;33;20075;-79
2022/10/06 05:31:12;;;;;;;17.65;3.55;;;;;;;;;;4347476;33;20492;-79
2022/10/06 05:33:37;;;;;;;12.77;2.78;;;;;;;;;;4348055;33;20054;-78
2022/10/06 05:36:03;;;;;;;;;;;;;;;;;;4347627;33;20028;-78
2022/10/06 05:38:31;;;;;;;23.23;3.33;;;;;;;;;;4347222;33;20309;-77
2022/10/06 05:41:15;;;;;;;17.52;3.37;;;;;;;;;;4347261;33;20426;-77
2022/10/06 05:43:41;;;;;;;36.15;4.53;;;;;;;;;;4337434;33;20089;-78
2022/10/06 05:46:06;;;;;;;;;;;;;;;;;;4347381;33;20118;-78
2022/10/06 05:48:32;;;;;;;42.47;5.32;;;;;;;;;;4346670;33;19943;-78
2022/10/06 05:50:58;;;;;;;20.70;5.30;;;;;;;;;;4347436;33;20031;-78
2022/10/06 05:53:24;;;;;;;12.50;2.95;;;;;;;;;;4347208;33;20427;-77
2022/10/06 05:55:49;;;;;;;;;;;;;;;;;;4347805;33;20023;-78
2022/10/06 05:58:14;;;;;;;16.50;3.50;;;;;;;;;;4347229;33;20289;-76
2022/10/06 06:00:39;;;;;;;19.45;3.42;;;;;;;;;;4347238;33;20154;-78
2022/10/06 06:03:05;;;;;;;;;;;;;;;;;;4348710;33;20028;-77
2022/10/06 06:05:30;;;;;;;21.75;3.87;;;;;;;;;;4347161;33;20379;-77
2022/10/06 06:07:55;;;;;;;;;;;;;;;;;;4347028;33;20135;-77
2022/10/06 06:10:21;;;;;;;17.83;3.40;;;;;;;;;;4346868;33;19943;-77
2022/10/06 06:12:46;;;;;;;18.98;5.40;;;;;;;;;;4347431;33;20475;-77
2022/10/06 06:17:55;;;;;;;16.10;4.30;;;;;;;;;;4346992;33;20459;-78
2022/10/06 06:20:21;;;;;;;;;;;;;;;;;;4347023;33;20023;-78
2022/10/06 06:22:50;;;;;;;17.40;3.33;;;;;;;;;;4347125;33;19938;-77
2022/10/06 06:25:16;;;;;;;19.05;3.33;;;;;;;;;;4347602;33;20119;-77
2022/10/06 06:27:41;;;;;;;;;;;;;;;;;;4347155;33;20461;-77
2022/10/06 06:30:35;;;;;;;14.60;3.45;;;;;;;;;;4346457;33;19943;-77
2022/10/06 06:33:00;;;;;;;19.87;4.18;;;;;;;;;;4338307;33;20214;-77
2022/10/06 06:35:25;;;;;;;;;;;;;;;;;;4346863;33;20031;-77
2022/10/06 06:38:04;;;;;;;19.35;4.03;;;;;;;;;;4346584;33;19935;-78
2022/10/06 06:40:33;;;;;;;18.00;3.15;;;;;;;;;;4346627;33;20256;-77
2022/10/06 06:43:01;;;;;;;20.42;5.25;;;;;;;;;;4346600;33;20311;-77
2022/10/06 06:45:26;;;;;;;14.13;2.95;;;;;;;;;;4333434;33;20131;-77
2022/10/06 06:47:54;;;;;;;;;;;;;;;;;;4346571;33;20027;-77
2022/10/06 06:51:25;;;;;;;18.45;3.35;;;;;;;;;;4346102;33;19956;-77
2022/10/06 06:53:23;;;;;;;13.30;3.15;;;;;;;;;;4339646;33;20032;-78
2022/10/06 06:55:55;;;;;;;15.93;3.00;;;;;;;;;;4345113;33;20032;-78
2022/10/06 06:58:21;;;;;;;12.07;3.15;;;;;;;;;;4344320;33;20074;-78
2022/10/06 07:00:47;;;;;;;;;;;;;;;;;;4344919;33;20070;-78
2022/10/06 07:03:19;;;;;;;22.70;4.47;;;;;;;;;;4344155;33;19962;-78
2022/10/06 07:05:45;;;;;;;11.32;3.00;;;;;;;;;;4344011;33;20039;-79
2022/10/06 07:08:14;;;;;;;21.00;3.45;;;;;;;;;;4344146;33;20101;-78
2022/10/06 07:10:40;;;;;;;16.73;3.17;;;;;;;;;;4344838;33;20054;-78
2022/10/06 07:13:05;;;;;;;14.85;3.03;;;;;;;;;;4345366;33;20031;-78
2022/10/06 07:26:42;;;;;;;16.62;2.90;;;;;;;;;;4346737;33;20083;-78
2022/10/06 07:29:08;;;;;;;13.57;2.72;;;;;;;;;;4346178;33;20042;-78
2022/10/06 07:31:33;;;;;;;;;;;;;;;;;;4345986;33;20047;-78
2022/10/06 07:33:59;;;;;;;16.60;4.00;;;;;;;;;;4332307;33;19939;-79
2022/10/06 07:36:25;;;;;;;18.05;3.78;;;;;;;;;;4334329;33;20210;-79
2022/10/06 07:38:50;;;;;;;;;;;;;;;;;;4331102;33;20067;-79
2022/10/06 07:41:21;;;;;;;19.77;3.92;;;;;;;;;;4330969;33;19939;-79
2022/10/06 07:43:46;;;;;;;14.23;4.57;;;;;;;;;;4331287;33;20148;-79
2022/10/06 07:46:19;;;;;;;17.02;3.87;;;;;;;;;;4331650;33;20027;-78
2022/10/06 07:49:00;;;;;;;17.30;4.15;;;;;;;;;;4330381;33;20032;-78
2022/10/06 07:51:41;;;;;;;;;;;;;;;;;;;;;
2022/10/06 07:54:12;;;;;;;16.48;3.53;;;;;;;;;;4330383;33;20031;-78
2022/10/06 07:56:38;;;;;;;16.30;3.97;;;;;;;;;;4317564;33;20027;-78
2022/10/06 07:59:03;;;;;;;10.95;2.45;;;;;;;;;;4330425;33;20058;-78
2022/10/06 08:01:42;;;;;;;;;;;;;;;;;;4330616;33;20063;-78
2022/10/06 08:04:08;;;;;;;12.57;3.08;;;;;;;;;;4330507;33;19943;-79
2022/10/06 08:06:37;;;;;;;19.10;4.72;;;;;;;;;;4330760;33;20062;-79
2022/10/06 08:09:03;;;;;;;12.10;2.67;;;;;;;;;;4330290;33;20031;-79
2022/10/06 08:11:37;;;;;;;10.35;3.03;;;;;;;;;;4330278;33;20460;-78
2022/10/06 08:14:13;;;;;;;10.60;2.70;;;;;;;;;;4331008;33;20029;-78
2022/10/06 08:16:39;;;;;;;13.27;2.35;;;;;;;;;;4330013;33;20410;-78
2022/10/06 08:19:04;;;;;;;7.78;2.67;;;;;;;;;;4317711;33;20082;-78
2022/10/06 08:21:56;;;;;;;9.20;2.75;;;;;;;;;;4330287;33;20249;-77
2022/10/06 08:24:24;;;;;;;11.85;2.78;;;;;;;;;;4323217;33;20086;-77
2022/10/06 08:27:08;;;;;;;9.40;2.42;;;;;;;;;;4330374;33;20509;-77
2022/10/06 08:29:34;;;;;;;19.67;3.20;;;;;;;;;;4330487;33;20046;-77
2022/10/06 08:31:59;;;;;;;17.45;3.03;;;;;;;;;;4332382;33;20043;-77
2022/10/06 08:34:25;;;;;;;12.85;3.45;;;;;;;;;;4333231;33;20125;-77
2022/10/06 08:36:50;;;;;;;7.22;1.92;;;;;;;;;;4333564;33;20067;-79
2022/10/06 08:39:16;;;;;;;12.80;2.22;;;;;;;;;;4334167;33;20078;-78
2022/10/06 08:41:48;;;;;;;13.62;2.50;;;;;;;;;;4350182;33;20051;-78
2022/10/06 08:44:18;;;;;;;9.73;3.25;;;;;;;;;;4355183;32;20105;-78
2022/10/06 08:47:01;;;;;;;7.53;2.65;;;;;;;;;;4361268;32;20068;-77
2022/10/06 08:49:32;;;;;;;7.78;2.30;;;;;;;;;;4349093;33;20405;-77
2022/10/06 08:52:17;;;;;;;16.33;3.10;;;;;;;;;;4333597;33;20028;-78
2022/10/06 08:54:48;;;;;;;14.98;2.62;;;;;;;;;;4335139;33;20405;-77
2022/10/06 09:00:32;;;;;;;16.10;2.65;;;;;;;;;;4352659;32;20045;-78
2022/10/06 09:03:06;;;;;;;14.23;2.62;;;;;;;;;;4309472;33;20099;-78
2022/10/06 09:05:34;;;;;;;8.38;1.98;;;;;;;;;;4354778;32;20440;-78
2022/10/06 09:08:05;;;;;;;12.85;2.35;;;;;;;;;;4357856;33;20032;-78
2022/10/06 09:10:30;;;;;;;7.65;1.98;;;;;;;;;;4360044;33;20075;-77
2022/10/06 09:13:34;;;;;;;8.75;2.00;;;;;;;;;;4336425;33;20077;-77
2022/10/06 09:19:00;;;;;;;11.82;1.92;;;;;;;;;;4272628;33;20059;-78
2022/10/06 09:21:51;;;;;;;10.82;2.80;;;;;;;;;;4314545;33;20054;-78
2022/10/06 09:24:36;;;;;;;9.30;2.45;;;;;;;;;;4346119;33;20096;-77
2022/10/06 09:27:13;;;;;;;14.02;2.00;;;;;;;;;;4349540;32;20081;-77
2022/10/06 09:29:39;;;;;;;7.47;1.85;;;;;;;;;;4334242;33;20050;-77
2022/10/06 09:32:05;;;;;;;14.80;2.37;;;;;;;;;;4354343;32;20036;-78
2022/10/06 09:34:54;;;;;;;7.32;1.35;;;;;;;;;;4357620;32;20070;-78
2022/10/06 09:37:20;;;;;;;13.25;2.50;;;;;;;;;;4358874;32;20373;-77
2022/10/06 09:39:53;;;;;;;9.68;1.87;;;;;;;;;;4347894;33;20505;-79
2022/10/06 09:42:21;;;;;;;10.30;2.10;;;;;;;;;;4352076;32;20024;-80
2022/10/06 09:44:59;;;;;;;8.75;2.42;;;;;;;;;;4346323;33;20063;-77
2022/10/06 09:47:27;;;;;;;10.32;2.42;;;;;;;;;;4358004;33;20028;-77
2022/10/06 09:50:05;;;;;;;10.45;1.92;;;;;;;;;;4360719;32;20475;-78
2022/10/06 09:52:30;;;;;;;7.90;1.95;;;;;;;;;;4357702;33;20082;-78
2022/10/06 09:55:22;;;;;;;6.72;1.65;;;;;;;;;;4360297;32;20401;-77
2022/10/06 09:57:48;;;;;;;7.28;2.10;;;;;;;;;;4358430;33;20070;-85
2022/10/06 10:00:27;;;;;;;13.55;2.60;;;;;;;;;;4348462;33;20053;-78
2022/10/06 10:03:01;;;;;;;11.23;2.00;;;;;;;;;;4347432;33;20073;-78
2022/10/06 10:05:30;;;;;;;11.45;2.15;;;;;;;;;;4348429;33;20414;-77
2022/10/06 10:08:16;;;;;;;11.57;2.55;;;;;;;;;;4362216;32;20069;-78
2022/10/06 10:13:51;;;;;;;12.50;2.58;;;;;;;;;;4353279;33;20078;-78
2022/10/06 10:16:26;;;;;;;10.27;2.65;;;;;;;;;;4333995;33;20047;-78
2022/10/06 10:18:51;;;;;;;18.15;6.53;;;;;;;;;;4333848;33;20123;-78
2022/10/06 10:21:24;;;;;;;11.75;3.70;;;;;;;;;;4347147;33;20051;-79
2022/10/06 10:24:01;;;;;;;10.18;2.03;;;;;;;;;;4347001;33;20027;-79
2022/10/06 10:26:40;;;;;;;6.55;2.08;;;;;;;;;;4346846;33;20028;-79
2022/10/06 10:29:29;;;;;;;12.80;2.60;;;;;;;;;;4333686;33;20032;-78
2022/10/06 10:32:03;;;;;;;8.90;2.62;;;;;;;;;;4333275;33;20050;-77
2022/10/06 10:34:52;;;;;;;14.30;3.10;;;;;;;;;;4347196;33;20042;-76
2022/10/06 10:37:29;;;;;;;13.93;2.65;;;;;;;;;;4346870;33;20027;-77
2022/10/06 10:40:04;;;;;;;4.95;2.33;;;;;;;;;;4346460;33;20054;-77
2022/10/06 10:42:36;;;;;;;11.20;2.03;;;;;;;;;;4347156;33;20020;-76
2022/10/06 10:45:08;;;;;;;16.37;2.37;;;;;;;;;;4346073;33;20094;-77
2022/10/06 10:48:03;;;;;;;10.18;2.92;;;;;;;;;;4346916;33;20027;-77
2022/10/06 10:50:34;;;;;;;16.02;2.42;;;;;;;;;;4329775;33;20028;-77
2022/10/06 10:53:20;;;;;;;10.43;2.55;;;;;;;;;;4346465;33;20078;-77
2022/10/06 10:55:46;;;;;;;9.07;2.28;;;;;;;;;;4345019;33;20058;-78
2022/10/06 10:58:24;;;;;;;11.93;2.20;;;;;;;;;;4333053;33;20023;-77
2022/10/06 11:00:52;;;;;;;10.82;3.10;;;;;;;;;;4346414;33;20019;-78
2022/10/06 11:03:17;;;;;;;12.23;2.87;;;;;;;;;;4346122;33;20046;-78
2022/10/06 11:06:01;;;;;;;8.77;2.22;;;;;;;;;;4332712;33;20028;-77
2022/10/06 11:08:42;;;;;;;6.70;1.90;;;;;;;;;;4346459;33;20390;-78
2022/10/06 11:11:13;;;;;;;7.65;2.22;;;;;;;;;;4347447;33;20041;-78
2022/10/06 11:13:43;;;;;;;9.77;2.58;;;;;;;;;;4347392;33;20027;-78
2022/10/06 11:16:47;;;;;;;6.12;2.08;;;;;;;;;;4346323;33;20040;-76
2022/10/06 11:19:26;;;;;;;8.95;2.67;;;;;;;;;;4334530;33;20031;-78
2022/10/06 11:22:00;;;;;;;7.72;2.00;;;;;;;;;;4346555;33;20043;-78
2022/10/06 11:24:29;;;;;;;8.82;1.98;;;;;;;;;;4346018;33;20077;-78
2022/10/06 11:27:02;;;;;;;10.07;2.03;;;;;;;;;;4332030;33;20024;-78
2022/10/06 11:29:33;;;;;;;5.45;2.00;;;;;;;;;;4345123;33;20036;-77
2022/10/06 11:32:04;;;;;;;8.05;2.28;;;;;;;;;;4332999;33;20358;-77
2022/10/06 11:34:32;;;;;;;4.57;1.80;;;;;;;;;;4345433;33;20028;-77
2022/10/06 11:37:13;;;;;;;7.40;2.10;;;;;;;;;;4345088;33;20098;-76
2022/10/06 11:40:01;;;;;;;7.78;2.00;;;;;;;;;;4344225;33;20089;-77
2022/10/06 11:42:32;;;;;;;8.35;2.22;;;;;;;;;;4344675;33;20065;-78
2022/10/06 11:45:11;;;;;;;9.43;4.35;;;;;;;;;;4344877;33;20078;-78
2022/10/06 11:47:52;;;;;;;4.70;1.40;;;;;;;;;;4337431;33;20020;-78
2022/10/06 11:50:36;;;;;;;12.75;1.70;;;;;;;;;;4344257;33;20024;-78
2022/10/06 11:53:03;;;;;;;6.97;1.75;;;;;;;;;;4345394;33;20049;-78
2022/10/06 12:10:14;;;;;;;11.38;2.35;;;;;;;;;;4271270;33;20451;-78
2022/10/06 12:12:40;;;;;;;8.57;2.28;;;;;;;;;;4287637;33;20063;-77
2022/10/06 12:15:08;;;;;;;9.77;2.40;;;;;;;;;;4302285;33;20066;-77
2022/10/06 12:17:41;;;;;;;6.47;2.08;;;;;;;;;;4346737;33;20035;-77
2022/10/06 12:20:33;;;;;;;10.90;1.90;;;;;;;;;;4346104;33;20023;-77
2022/10/06 12:23:11;;;;;;;9.35;3.25;;;;;;;;;;4345108;33;20012;-77
2022/10/06 12:25:53;;;;;;;7.95;1.80;;;;;;;;;;4345504;33;20023;-77
2022/10/06 12:28:28;;;;;;;9.88;2.72;;;;;;;;;;4345463;33;20027;-77
2022/10/06 12:31:12;;;;;;;8.63;2.90;;;;;;;;;;4346903;33;20343;-78
2022/10/06 12:33:41;;;;;;;9.23;1.98;;;;;;;;;;4346273;33;20074;-77
2022/10/06 12:36:16;;;;;;;6.72;2.10;;;;;;;;;;4345190;33;20032;-79
2022/10/06 12:38:43;;;;;;;12.60;3.10;;;;;;;;;;4345489;33;20058;-78
2022/10/06 12:41:12;;;;;;;8.05;2.22;;;;;;;;;;4354767;33;20140;-78
2022/10/06 12:43:52;;;;;;;8.02;1.98;;;;;;;;;;4360399;32;20027;-78
2022/10/06 12:49:40;;;;;;;;;;;;;;;;;;;;;
2022/10/06 12:52:17;;;;;;;9.85;2.42;;;;;;;;;;4288892;33;20049;-78
2022/10/06 12:55:01;;;;;;;8.45;2.47;;;;;;;;;;4323342;33;20027;-77
2022/10/06 12:57:39;;;;;;;11.23;2.20;;;;;;;;;;4344417;33;20445;-76
2022/10/06 13:00:48;;;;;;;6.53;1.83;;;;;;;;;;4344544;33;20062;-76
2022/10/06 13:06:32;;;;;;;;;;;;;;;;;;;;;
2022/10/06 13:09:39;;;;;;;5.87;1.60;;;;;;;;;;4344631;33;20069;-78
2022/10/06 13:12:54;;;;;;;7.12;2.03;;;;;;;;;;4313481;33;20027;-78
2022/10/06 13:16:06;;;;;;;8.02;1.77;;;;;;;;;;4264442;33;20045;-79
2022/10/06 13:22:26;;;;;;;;;;;;;;;;;;;;;
2022/10/06 13:25:29;;;;;;;7.70;2.17;;;;;;;;;;4265595;33;20076;-79
2022/10/06 13:28:38;;;;;;;12.35;2.62;;;;;;;;;;4214791;34;20541;-77
2022/10/06 14:02:41;;;;;;;6.40;1.67;;;;;;;;;;4202166;33;20096;-77
2022/10/06 14:05:41;;;;;;;6.55;2.10;;;;;;;;;;4280083;33;20033;-76
2022/10/06 14:08:09;;;;;;;7.25;1.40;;;;;;;;;;4291662;33;20469;-78
2022/10/06 14:10:44;;;;;;;6.40;1.85;;;;;;;;;;4279528;33;20036;-77
2022/10/06 14:13:43;;;;;;;6.87;2.62;;;;;;;;;;4326505;33;20062;-79
2022/10/06 14:16:53;;;;;;;8.25;2.05;;;;;;;;;;4331827;33;20058;-78
2022/10/06 14:23:27;;;;;;;6.32;1.77;;;;;;;;;;4278813;33;20059;-77
2022/10/06 14:25:53;;;;;;;6.95;2.00;;;;;;;;;;4327871;33;20062;-77
2022/10/06 14:28:21;;;;;;;8.02;2.03;;;;;;;;;;4333149;33;20114;-78
2022/10/06 14:30:58;;;;;;;10.07;2.50;;;;;;;;;;4306874;33;20056;-79
2022/10/06 14:34:18;;;;;;;5.62;1.67;;;;;;;;;;4301450;33;20078;-79
2022/10/06 14:36:26;;;;;;;8.85;2.62;;;;;;;;;;4296263;33;20040;-77
2022/10/06 14:38:52;;;;;;;9.38;2.40;;;;;;;;;;4300117;33;20102;-78
2022/10/06 14:41:26;;;;;;;8.65;2.05;;;;;;;;;;4305417;33;20116;-79
2022/10/06 14:43:54;;;;;;;17.50;3.15;;;;;;;;;;4308801;33;20072;-78
2022/10/06 14:46:20;;;;;;;7.03;2.03;;;;;;;;;;4308730;33;20040;-77
2022/10/06 14:48:45;;;;;;;7.35;1.80;;;;;;;;;;4304399;33;20377;-77
2022/10/06 14:51:15;;;;;;;8.07;2.35;;;;;;;;;;4305636;33;20099;-77
2022/10/06 14:53:40;;;;;;;8.32;2.20;;;;;;;;;;4303411;33;20048;-77
2022/10/06 14:56:09;;;;;;;10.85;2.70;;;;;;;;;;4329749;33;20473;-76
2022/10/06 14:58:39;;;;;;;9.95;2.00;;;;;;;;;;4338798;33;20054;-77
2022/10/06 15:01:08;;;;;;;9.82;2.35;;;;;;;;;;4336903;33;20032;-78
2022/10/06 15:03:39;;;;;;;10.05;2.33;;;;;;;;;;4343037;33;20032;-76
2022/10/06 15:08:58;;;;;;;20.02;2.85;;;;;;;;;;4334565;33;20063;-77
2022/10/06 15:17:41;;;;;;;12.07;4.12;;;;;;;;;;4338079;33;20069;-76
2022/10/06 15:20:17;;;;;;;;;;;;;;;;;;;;;
2022/10/06 15:22:48;;;;;;;9.60;1.92;;;;;;;;;;4336401;33;20417;-76
2022/10/06 15:30:57;;;;;;;10.18;2.53;;;;;;;;;;4337978;33;20081;-77
2022/10/06 15:36:50;;;;;;;8.55;2.05;;;;;;;;;;4313586;33;20155;-76
2022/10/06 15:39:22;;;;;;;5.95;2.22;;;;;;;;;;4312271;33;20416;-75
2022/10/06 15:42:20;;;;;;;8.98;2.30;;;;;;;;;;4311679;33;20062;-76
2022/10/06 15:44:46;;;;;;;10.18;2.10;;;;;;;;;;4312323;33;20032;-76
2022/10/06 15:47:15;;;;;;;8.45;2.67;;;;;;;;;;4315585;33;20036;-76
2022/10/06 15:49:43;;;;;;;13.35;2.58;;;;;;;;;;4328877;33;20053;-76
2022/10/06 15:52:12;;;;;;;12.25;2.83;;;;;;;;;;4328474;33;20066;-75
2022/10/06 15:54:46;;;;;;;12.77;2.97;;;;;;;;;;4329447;33;20398;-76
2022/10/06 15:57:12;;;;;;;9.75;2.70;;;;;;;;;;4329488;33;20040;-75
2022/10/06 15:59:43;;;;;;;9.60;2.08;;;;;;;;;;4330194;33;20083;-75
2022/10/06 16:02:13;;;;;;;11.98;2.70;;;;;;;;;;4332082;33;20058;-75
2022/10/06 16:07:11;;;;;;;12.82;2.40;;;;;;;;;;4331072;33;20040;-75
2022/10/06 16:09:56;;;;;;;9.95;2.20;;;;;;;;;;4331042;33;20075;-75
2022/10/06 16:12:23;;;;;;;16.23;3.30;;;;;;;;;;4331200;33;20049;-75
2022/10/06 16:14:59;;;;;;;10.48;2.72;;;;;;;;;;4334789;33;20161;-75
2022/10/06 16:17:34;;;;;;;;;;;;;;;;;;;;;
2022/10/06 16:20:10;;;;;;;9.45;2.87;;;;;;;;;;4280977;33;20474;-75
2022/10/06 16:22:56;;;;;;;14.20;2.87;;;;;;;;;;4333959;33;20050;-75
2022/10/06 16:25:56;;;;;;;14.43;3.00;;;;;;;;;;4343169;33;20078;-75
2022/10/06 16:28:30;;;;;;;17.62;2.95;;;;;;;;;;4341732;33;20504;-75
2022/10/06 16:30:56;;;;;;;10.05;3.03;;;;;;;;;;4344384;33;20412;-76
2022/10/06 16:33:34;;;;;;;12.63;2.55;;;;;;;;;;4343355;33;20093;-76
2022/10/06 16:36:00;;;;;;;8.25;2.10;;;;;;;;;;4344446;33;20427;-76
2022/10/06 16:38:27;;;;;;;11.98;2.60;;;;;;;;;;4343796;33;20046;-76
2022/10/06 16:40:55;;;;;;;13.02;2.95;;;;;;;;;;4343867;33;20040;-76
2022/10/06 16:43:23;;;;;;;14.27;3.20;;;;;;;;;;4351381;33;20055;-76
2022/10/06 16:46:16;;;;;;;6.95;2.50;;;;;;;;;;4360321;33;20133;-75
2022/10/06 16:48:43;;;;;;;13.10;2.75;;;;;;;;;;4360514;33;20054;-75
2022/10/06 16:51:13;;;;;;;10.52;2.58;;;;;;;;;;4360166;33;20019;-76
2022/10/06 16:53:40;;;;;;;18.52;4.57;;;;;;;;;;4362471;32;20110;-75
2022/10/06 16:56:06;;;;;;;14.77;3.40;;;;;;;;;;4350955;32;20034;-75
2022/10/06 16:58:38;;;;;;;13.35;2.78;;;;;;;;;;4362720;33;20078;-75
2022/10/06 17:04:04;;;;;;;14.18;4.18;;;;;;;;;;4363991;32;20110;-76
2022/10/06 17:06:40;;;;;;;;;;;;;;;;;;;;;
2022/10/06 17:09:07;;;;;;;13.68;3.08;;;;;;;;;;4363751;32;20027;-76
2022/10/06 17:21:05;;;;;;;16.70;2.78;;;;;;;;;;4287561;33;20087;-76
2022/10/06 17:23:34;;;;;;;11.50;3.03;;;;;;;;;;4360302;33;20534;-75
2022/10/06 17:26:26;;;;;;;15.05;3.37;;;;;;;;;;4362334;32;20032;-76
2022/10/06 17:29:30;;;;;;;12.68;3.80;;;;;;;;;;4362718;32;20085;-75
2022/10/06 17:31:59;;;;;;;12.37;2.70;;;;;;;;;;4316835;33;20028;-75
2022/10/06 17:37:39;;;;;;;15.50;2.85;;;;;;;;;;4273949;33;20048;-76
2022/10/06 17:40:26;;;;;;;12.10;2.75;;;;;;;;;;4316090;33;20406;-76
2022/10/06 17:42:52;;;;;;;19.37;3.72;;;;;;;;;;4312666;33;20099;-75
2022/10/06 17:48:51;;;;;;;15.68;3.28;;;;;;;;;;4301651;33;20087;-75
2022/10/06 17:51:18;;;;;;;13.45;3.47;;;;;;;;;;4332879;33;20422;-75
2022/10/06 17:54:02;;;;;;;;;;;;;;;;;;;;;
2022/10/06 17:56:32;;;;;;;10.45;2.85;;;;;;;;;;4332957;33;20032;-75
2022/10/06 17:58:59;;;;;;;11.20;2.60;;;;;;;;;;4318924;33;20047;-75
2022/10/06 18:01:30;;;;;;;12.35;3.37;;;;;;;;;;4332390;33;20040;-75
2022/10/06 18:03:55;;;;;;;12.48;2.60;;;;;;;;;;4331731;33;20051;-75
2022/10/06 18:06:28;;;;;;;24.65;2.90;;;;;;;;;;4318865;33;20060;-75
2022/10/06 18:08:54;;;;;;;13.77;2.65;;;;;;;;;;4331972;33;20099;-76
2022/10/06 18:11:40;;;;;;;14.52;2.90;;;;;;;;;;4332410;33;20464;-76
2022/10/06 18:14:27;;;;;;;13.90;3.08;;;;;;;;;;4319315;33;20024;-77
2022/10/06 18:16:54;;;;;;;10.57;2.53;;;;;;;;;;4332303;33;20024;-77
2022/10/06 18:19:25;;;;;;;13.13;3.20;;;;;;;;;;4332154;33;20044;-77
2022/10/06 18:21:51;;;;;;;9.00;2.87;;;;;;;;;;4332137;33;20072;-77
2022/10/06 18:24:37;;;;;;;18.62;3.45;;;;;;;;;;4319491;33;20111;-77
2022/10/06 18:27:04;;;;;;;15.18;3.12;;;;;;;;;;4332430;33;20401;-77
2022/10/06 18:29:39;;;;;;;22.42;2.87;;;;;;;;;;4331961;33;20058;-77
2022/10/06 18:32:07;;;;;;;14.77;3.85;;;;;;;;;;4318529;33;20032;-76